Time;durP1;ratioP1;P1;durP2;ratioP2;P2;SDS_P1;SDS_P2;PMS_P1;PMS_P2;Temp;Humidity;BMP_temperature;BMP_pressure;BME280_temperature;BME280_humidity;BME280_pressure;Samples;Min_cycle;Max_cycle;Signal;HPM_P1;HPM_P2
2024/01/08 00:00:31;;;;;;;;;23.00;21.00;;;;;-0.49;100.00;99071.56;6214224;28;98377;-58
2024/01/08 00:03:34;;;;;;;;;25.00;23.25;;;;;-0.52;100.00;99074.53;6234001;28;96322;-58
2024/01/08 00:06:38;;;;;;;;;22.60;20.20;;;;;-0.51;100.00;99078.00;6236663;28;96918;-58
2024/01/08 00:09:42;;;;;;;;;23.40;22.00;;;;;-0.59;100.00;99077.91;6234532;28;96546;-58
2024/01/08 00:12:45;;;;;;;;;25.80;23.80;;;;;-0.50;100.00;99083.16;6244866;28;96311;-58
2024/01/08 00:15:48;;;;;;;;;24.80;20.40;;;;;-0.52;100.00;99087.75;6250050;28;96768;-58
2024/01/08 00:18:53;;;;;;;;;26.60;25.00;;;;;-0.50;100.00;99095.56;6221457;28;96292;-58
2024/01/08 00:21:56;;;;;;;;;25.20;22.80;;;;;-0.48;100.00;99085.66;6218172;28;96553;-58
2024/01/08 00:25:00;;;;;;;;;26.00;23.00;;;;;-0.51;100.00;99097.38;6238680;28;96447;-59
2024/01/08 00:28:05;;;;;;;;;24.20;21.20;;;;;-0.54;100.00;99096.84;6228011;28;96279;-59
2024/01/08 00:31:08;;;;;;;;;25.67;24.00;;;;;-0.60;100.00;99106.19;6215722;28;96708;-58
2024/01/08 00:34:12;;;;;;;;;25.75;23.00;;;;;-0.63;100.00;99097.69;6219347;28;96289;-58
2024/01/08 00:37:15;;;;;;;;;26.80;24.40;;;;;-0.75;100.00;99109.47;6216142;28;96492;-58
2024/01/08 00:40:20;;;;;;;;;27.00;24.00;;;;;-0.67;100.00;99114.84;6238878;28;96726;-59
2024/01/08 00:43:23;;;;;;;;;29.60;25.20;;;;;-0.76;100.00;99116.56;6233856;28;96862;-59
2024/01/08 00:46:26;;;;;;;;;29.00;25.60;;;;;-0.68;100.00;99121.97;6232450;28;96455;-58
2024/01/08 00:49:29;;;;;;;;;25.60;23.00;;;;;-0.68;100.00;99114.03;6215185;28;96741;-59
2024/01/08 00:52:32;;;;;;;;;26.40;23.40;;;;;-0.64;100.00;99115.44;6215326;28;96393;-59
2024/01/08 00:55:36;;;;;;;;;22.00;18.00;;;;;-0.55;100.00;99111.91;6218321;28;97812;-59
2024/01/08 00:58:41;;;;;;;;;23.60;22.00;;;;;-0.51;100.00;99117.72;6226827;28;96273;-59
2024/01/08 01:01:45;;;;;;;;;26.60;21.00;;;;;-0.54;100.00;99118.03;6228848;28;96477;-59
2024/01/08 01:04:48;;;;;;;;;21.00;19.00;;;;;-0.56;100.00;99119.97;6220126;28;98479;-59
2024/01/08 01:07:52;;;;;;;;;23.20;23.00;;;;;-0.57;100.00;99126.25;6214750;28;96999;-59
2024/01/08 01:10:57;;;;;;;;;25.00;21.00;;;;;-0.74;100.00;99116.44;6217255;28;96338;-59
2024/01/08 01:14:00;;;;;;;;;22.00;20.00;;;;;-0.56;100.00;99135.88;6239082;27;96254;-59
2024/01/08 01:17:04;;;;;;;;;26.25;22.50;;;;;-0.56;100.00;99131.41;6214423;28;97189;-59
2024/01/08 01:20:09;;;;;;;;;27.00;23.25;;;;;-0.66;100.00;99135.91;6212044;28;97363;-59
2024/01/08 01:23:12;;;;;;;;;24.60;20.60;;;;;-0.88;100.00;99136.25;6215943;28;96355;-59
2024/01/08 01:26:16;;;;;;;;;28.00;23.40;;;;;-0.83;100.00;99139.28;6214401;28;96905;-62
2024/01/08 01:29:20;;;;;;;;;25.00;23.00;;;;;-0.87;100.00;99146.69;6213433;28;96777;-62
2024/01/08 01:32:23;;;;;;;;;22.00;22.00;;;;;-0.85;100.00;99148.34;6202447;28;96660;-62
2024/01/08 01:35:26;;;;;;;;;27.25;22.25;;;;;-0.92;100.00;99146.28;6223242;28;97671;-61
2024/01/08 01:38:29;;;;;;;;;25.00;21.20;;;;;-0.94;100.00;99153.53;6224198;28;97056;-61
2024/01/08 01:41:34;;;;;;;;;24.60;21.60;;;;;-0.95;100.00;99154.50;6238149;28;96505;-61
2024/01/08 01:44:37;;;;;;;;;27.00;24.25;;;;;-1.04;100.00;99160.66;6227748;28;96876;-61
2024/01/08 01:47:40;;;;;;;;;26.50;25.00;;;;;-0.94;100.00;99158.84;6207986;28;96621;-61
2024/01/08 01:50:44;;;;;;;;;21.75;21.00;;;;;-1.03;100.00;99167.63;6235619;28;97051;-61
2024/01/08 01:53:49;;;;;;;;;25.40;23.40;;;;;-1.01;100.00;99168.31;6217028;28;96674;-61
2024/01/08 01:56:56;;;;;;;;;25.00;22.40;;;;;-1.04;100.00;99165.97;6215060;28;96564;-61
2024/01/08 02:00:00;;;;;;;;;27.00;22.00;;;;;-1.05;100.00;99169.56;6215806;28;98516;-61
2024/01/08 02:03:06;;;;;;;;;22.60;21.00;;;;;-1.08;100.00;99169.03;6269523;22;97365;-60
2024/01/08 02:06:12;;;;;;;;;24.60;21.00;;;;;-1.14;100.00;99173.06;6277300;27;96215;-61
2024/01/08 02:09:16;;;;;;;;;24.20;21.60;;;;;-1.21;100.00;99174.59;6271263;27;96152;-60
2024/01/08 02:12:21;;;;;;;;;21.20;21.00;;;;;-1.24;100.00;99180.16;6255945;27;96381;-60
2024/01/08 02:15:24;;;;;;;;;27.60;24.60;;;;;-1.15;100.00;99174.03;6237866;27;99207;-61
2024/01/08 02:18:30;;;;;;;;;23.60;21.20;;;;;-1.11;100.00;99175.41;6234140;28;98799;-61
2024/01/08 02:21:34;;;;;;;;;23.00;20.00;;;;;-1.07;100.00;99183.91;6235767;28;96616;-60
2024/01/08 02:24:38;;;;;;;;;23.00;21.25;;;;;-1.21;100.00;99192.28;6255212;27;96732;-59
2024/01/08 02:27:41;;;;;;;;;23.00;20.00;;;;;-1.22;100.00;99186.13;6256383;27;96238;-59
2024/01/08 02:30:44;;;;;;;;;22.40;19.60;;;;;-1.23;100.00;99195.06;6258410;27;98810;-60
2024/01/08 02:33:48;;;;;;;;;23.00;20.00;;;;;-1.19;100.00;99192.97;6248855;27;98392;-60
2024/01/08 02:36:51;;;;;;;;;26.75;23.00;;;;;-1.14;100.00;99196.88;6237149;28;96330;-60
2024/01/08 02:39:55;;;;;;;;;29.40;24.00;;;;;-1.07;100.00;99202.41;6258230;27;96312;-60
2024/01/08 02:42:59;;;;;;;;;23.00;21.00;;;;;-1.09;100.00;99196.44;6268740;27;96239;-59
2024/01/08 02:46:02;;;;;;;;;24.00;21.33;;;;;-1.11;100.00;99193.94;6271498;27;96413;-60
2024/01/08 02:49:05;;;;;;;;;29.40;26.40;;;;;-1.26;100.00;99190.03;6267571;27;96335;-59
2024/01/08 02:52:08;;;;;;;;;28.40;25.00;;;;;-1.11;100.00;99201.03;6261048;27;97026;-59
2024/01/08 02:55:13;;;;;;;;;27.00;25.00;;;;;-1.14;100.00;99198.69;6254196;27;96720;-59
2024/01/08 02:58:16;;;;;;;;;25.40;24.40;;;;;-1.21;100.00;99203.69;6259979;27;96563;-63
2024/01/08 03:01:19;;;;;;;;;24.40;21.80;;;;;-1.35;100.00;99218.16;6256109;27;97410;-60
2024/01/08 03:04:22;;;;;;;;;26.00;23.00;;;;;-1.37;100.00;99214.81;6251251;27;98026;-59
2024/01/08 03:07:25;;;;;;;;;29.20;25.00;;;;;-1.47;100.00;99214.00;6256335;27;96375;-60
2024/01/08 03:10:30;;;;;;;;;27.40;25.20;;;;;-1.48;100.00;99222.06;6263518;27;96465;-60
2024/01/08 03:13:33;;;;;;;;;24.60;22.00;;;;;-1.40;100.00;99222.19;6262762;27;96311;-59
2024/01/08 03:16:36;;;;;;;;;25.20;24.00;;;;;-1.40;100.00;99223.03;6235672;28;98390;-60
2024/01/08 03:19:39;;;;;;;;;26.20;24.20;;;;;-1.51;100.00;99225.81;6253958;27;96362;-60
2024/01/08 03:22:42;;;;;;;;;25.60;23.00;;;;;-1.65;100.00;99217.44;6251648;28;96347;-60
2024/01/08 03:25:47;;;;;;;;;26.80;25.40;;;;;-1.54;100.00;99225.25;6247083;27;96733;-59
2024/01/08 03:28:50;;;;;;;;;28.80;23.80;;;;;-1.54;100.00;99217.31;6274223;27;97009;-59
2024/01/08 03:31:53;;;;;;;;;31.50;28.50;;;;;-1.49;100.00;99229.16;6254323;27;96113;-60
2024/01/08 03:34:56;;;;;;;;;27.20;23.00;;;;;-1.44;100.00;99234.03;6239480;27;96677;-60
2024/01/08 03:37:59;;;;;;;;;27.60;24.60;;;;;-1.42;100.00;99242.69;6244314;28;96996;-60
2024/01/08 03:41:04;;;;;;;;;27.20;25.20;;;;;-1.39;100.00;99245.03;6234030;27;96262;-60
2024/01/08 03:44:08;;;;;;;;;26.40;25.40;;;;;-1.39;100.00;99242.38;6253172;27;96566;-60
2024/01/08 03:47:12;;;;;;;;;26.60;24.80;;;;;-1.47;100.00;99234.31;6255995;27;97113;-59
2024/01/08 03:50:15;;;;;;;;;30.20;26.40;;;;;-1.40;100.00;99254.78;6263280;27;96197;-60
2024/01/08 03:53:18;;;;;;;;;28.00;25.00;;;;;-1.53;100.00;99226.91;6248323;27;96332;-60
2024/01/08 03:56:23;;;;;;;;;30.33;26.00;;;;;-1.41;100.00;99246.97;6260927;27;96830;-61
2024/01/08 03:59:27;;;;;;;;;32.80;29.00;;;;;-1.33;100.00;99257.72;6248249;27;99289;-61
2024/01/08 04:02:30;;;;;;;;;32.00;27.00;;;;;-1.47;100.00;99256.31;6254833;27;96464;-61
2024/01/08 04:05:33;;;;;;;;;25.67;24.33;;;;;-1.35;100.00;99262.28;6237419;27;98441;-59
2024/01/08 04:08:37;;;;;;;;;30.60;28.00;;;;;-1.31;100.00;99266.31;6254324;28;96414;-59
2024/01/08 04:11:41;;;;;;;;;25.40;23.60;;;;;-1.24;100.00;99282.50;6226851;28;96770;-60
2024/01/08 04:14:44;;;;;;;;;26.00;23.60;;;;;-1.35;100.00;99276.34;6252633;28;96249;-60
2024/01/08 04:17:48;;;;;;;;;29.60;26.60;;;;;-1.36;100.00;99276.47;6255711;28;96356;-60
2024/01/08 04:20:51;;;;;;;;;27.50;24.75;;;;;-1.40;100.00;99275.09;6253923;28;96295;-60
2024/01/08 04:23:54;;;;;;;;;32.00;25.20;;;;;-1.42;100.00;99280.50;6253845;28;96331;-60
2024/01/08 04:26:59;;;;;;;;;30.00;25.60;;;;;-1.51;100.00;99281.31;6229842;27;97033;-60
2024/01/08 04:30:02;;;;;;;;;29.40;26.60;;;;;-1.57;100.00;99284.53;6254396;27;96208;-61
2024/01/08 04:33:06;;;;;;;;;27.00;25.00;;;;;-1.72;100.00;99279.75;6267811;27;97658;-60
2024/01/08 04:36:09;;;;;;;;;25.40;24.00;;;;;-1.62;100.00;99293.84;6242917;28;98439;-60
2024/01/08 04:39:12;;;;;;;;;27.00;23.00;;;;;-1.72;100.00;99291.16;6254134;27;97488;-60
2024/01/08 04:42:17;;;;;;;;;25.40;24.00;;;;;-1.70;100.00;99298.94;6254291;27;96171;-60
2024/01/08 04:45:20;;;;;;;;;29.00;25.60;;;;;-1.74;100.00;99308.94;6254621;28;97033;-59
2024/01/08 04:48:23;;;;;;;;;20.40;17.40;;;;;-1.75;100.00;99307.28;6254051;28;96308;-60
2024/01/08 04:51:28;;;;;;;;;27.80;25.60;;;;;-1.73;100.00;99315.91;6238286;28;96294;-60
2024/01/08 04:54:31;;;;;;;;;25.00;23.00;;;;;-1.98;100.00;99277.56;6255370;28;96955;-61
2024/01/08 04:57:36;;;;;;;;;27.60;23.60;;;;;-1.76;100.00;99319.66;6235513;28;96862;-59
2024/01/08 05:00:39;;;;;;;;;26.40;25.40;;;;;-1.87;100.00;99306.56;6244389;28;97062;-60
2024/01/08 05:03:43;;;;;;;;;25.60;22.40;;;;;-1.69;100.00;99322.59;6253772;28;97117;-60
2024/01/08 05:06:47;;;;;;;;;24.50;23.25;;;;;-1.83;100.00;99317.69;6232885;27;96266;-60
2024/01/08 05:09:50;;;;;;;;;26.00;22.60;;;;;-1.99;100.00;99304.94;6229754;28;96424;-60
2024/01/08 05:12:54;;;;;;;;;25.40;22.60;;;;;-1.71;100.00;99331.66;6229863;28;96325;-60
2024/01/08 05:15:57;;;;;;;;;27.25;24.00;;;;;-1.81;100.00;99328.97;6226303;28;96681;-61
2024/01/08 05:19:01;;;;;;;;;24.00;22.00;;;;;-1.85;100.00;99315.16;6224936;28;96245;-60
2024/01/08 05:22:04;;;;;;;;;23.75;21.00;;;;;-1.70;100.00;99344.72;6222581;28;96977;-61
2024/01/08 05:25:08;;;;;;;;;22.60;21.80;;;;;-1.60;100.00;99350.88;6232567;28;96650;-63
2024/01/08 05:28:13;;;;;;;;;26.00;24.00;;;;;-2.13;100.00;99267.50;6298408;22;96319;-86
2024/01/08 05:31:21;;;;;;;;;22.50;20.00;;;;;-1.85;100.00;99338.94;6242646;27;96401;-86
2024/01/08 05:34:25;;;;;;;;;23.00;20.00;;;;;-1.84;100.00;99342.44;6275080;27;96304;-88
2024/01/08 05:37:28;;;;;;;;;23.20;21.20;;;;;-2.09;100.00;99321.72;6241618;27;96487;-86
2024/01/08 05:40:31;;;;;;;;;24.20;22.20;;;;;-2.10;100.00;99314.78;6259151;27;96755;-86
2024/01/08 05:43:38;;;;;;;;;29.50;23.00;;;;;-1.86;100.00;99368.97;6259813;27;96379;-88
2024/01/08 05:46:42;;;;;;;;;23.60;21.80;;;;;-2.17;100.00;99346.16;6246985;27;98410;-86
2024/01/08 05:49:47;;;;;;;;;24.00;23.00;;;;;-1.95;100.00;99413.84;6255068;27;96407;-88
2024/01/08 05:52:51;;;;;;;;;23.50;22.50;;;;;-2.21;100.00;99379.09;6254793;27;98464;-86
2024/01/08 05:55:54;;;;;;;;;26.67;24.00;;;;;-2.17;100.00;99347.97;6282074;27;96405;-87
2024/01/08 05:58:59;;;;;;;;;25.00;23.00;;;;;-2.11;100.00;99372.06;6277756;27;96931;-87
2024/01/08 06:02:03;;;;;;;;;23.00;22.00;;;;;-2.18;100.00;99392.03;6259273;27;96393;-86
2024/01/08 06:05:07;;;;;;;;;25.00;23.50;;;;;-1.88;100.00;99402.66;6249280;27;98604;-88
2024/01/08 06:08:11;;;;;;;;;26.25;23.00;;;;;-2.98;100.00;99253.66;6260506;27;96350;-88
2024/01/08 06:11:14;;;;;;;;;28.00;24.00;;;;;-1.92;100.00;99406.53;6257103;27;96853;-88
2024/01/08 06:14:19;;;;;;;;;27.80;24.60;;;;;-2.33;100.00;99348.41;6259529;27;96484;-86
2024/01/08 06:17:23;;;;;;;;;19.00;17.00;;;;;-2.10;100.00;99396.69;6274744;27;96323;-88
2024/01/08 06:20:26;;;;;;;;;24.40;21.80;;;;;-1.94;100.00;99412.88;6262512;27;96424;-87
2024/01/08 06:23:29;;;;;;;;;22.40;21.40;;;;;-1.95;100.00;99413.84;6255541;27;96488;-87
2024/01/08 06:26:33;;;;;;;;;24.50;23.00;;;;;-1.80;100.00;99429.25;6256953;27;97111;-86
2024/01/08 06:29:37;;;;;;;;;21.00;19.00;;;;;-2.08;100.00;99397.38;6258572;27;96350;-87
2024/01/08 06:32:41;;;;;;;;;26.00;23.60;;;;;-2.08;100.00;99376.22;6256186;27;97312;-87
2024/01/08 06:35:44;;;;;;;;;25.80;22.40;;;;;-2.16;100.00;99383.97;6248837;27;96558;-87
2024/01/08 06:38:47;;;;;;;;;24.40;21.80;;;;;-1.97;100.00;99424.56;6245229;27;96383;-88
2024/01/08 06:41:51;;;;;;;;;22.00;20.60;;;;;-2.01;100.00;99420.50;6247564;27;96315;-88
2024/01/08 06:44:55;;;;;;;;;22.50;20.50;;;;;-1.80;100.00;99450.38;6201159;28;96354;-90
2024/01/08 06:47:58;;;;;;;;;21.60;19.60;;;;;-1.69;100.00;99459.22;6212451;27;97177;-91
2024/01/08 06:51:02;;;;;;;;;26.50;24.00;;;;;-2.14;100.00;99369.66;6226757;27;96517;-91
2024/01/08 06:54:05;;;;;;;;;25.00;21.40;;;;;-1.70;100.00;99462.81;6227865;27;99609;-91
2024/01/08 06:57:08;;;;;;;;;26.40;23.20;;;;;-3.03;100.00;99314.69;6228697;27;97907;-91
2024/01/08 07:00:14;;;;;;;;;25.00;23.00;;;;;-1.53;100.00;99468.38;6222667;27;96756;-91
2024/01/08 07:03:17;;;;;;;;;28.00;26.00;;;;;-1.97;100.00;99415.81;6222792;27;96631;-91
2024/01/08 07:06:21;;;;;;;;;30.40;28.00;;;;;-1.59;100.00;99457.47;6228153;27;96571;-91
2024/01/08 07:09:24;;;;;;;;;23.80;21.40;;;;;-2.09;100.00;99412.38;6220732;27;97082;-91
2024/01/08 07:12:27;;;;;;;;;24.50;22.00;;;;;-1.51;100.00;99474.34;6213363;27;97019;-91
2024/01/08 07:15:40;;;;;;;;;22.00;20.00;;;;;-1.77;100.00;99460.72;6235401;27;97241;-90
2024/01/08 07:18:43;;;;;;;;;24.50;23.50;;;;;-1.70;100.00;99474.25;6228669;27;96692;-91
2024/01/08 07:21:46;;;;;;;;;25.00;21.50;;;;;-1.54;100.00;99482.56;6217167;27;96782;-91
2024/01/08 07:24:50;;;;;;;;;18.00;18.00;;;;;-2.92;100.00;99267.16;6214210;27;96571;-91
2024/01/08 07:27:53;;;;;;;;;24.80;21.80;;;;;-1.21;100.00;99507.06;6227372;27;96953;-91
2024/01/08 07:30:58;;;;;;;;;22.00;22.00;;;;;-3.28;100.00;99188.47;6231301;27;96615;-90
2024/01/08 07:34:01;;;;;;;;;27.40;22.40;;;;;-1.20;100.00;99525.47;6244092;27;96325;-91
2024/01/08 07:37:05;;;;;;;;;25.33;24.33;;;;;-1.21;100.00;99513.19;6228123;27;96699;-91
2024/01/08 07:40:09;;;;;;;;;22.00;20.00;;;;;-1.40;100.00;99471.63;6225074;27;97225;-91
2024/01/08 07:43:12;;;;;;;;;23.50;21.00;;;;;-0.89;100.00;99523.66;6220632;27;96786;-91
2024/01/08 07:46:17;;;;;;;;;21.40;20.40;;;;;-0.76;100.00;99515.47;6226996;27;96476;-91
2024/01/08 07:49:20;;;;;;;;;20.00;17.50;;;;;-0.70;100.00;99491.94;6227364;27;96956;-90
2024/01/08 07:52:24;;;;;;;;;22.80;20.00;;;;;-0.68;100.00;99439.69;6224528;27;96747;-87
2024/01/08 07:55:40;;;;;;;;;21.00;19.40;;;;;-1.13;100.00;99340.59;6274833;27;96350;-87
2024/01/08 07:58:43;;;;;;;;;18.00;14.60;;;;;0.62;100.00;99503.66;6258598;27;97101;-87
2024/01/08 08:01:48;;;;;;;;;24.60;22.60;;;;;1.39;100.00;99551.16;6250896;27;97033;-86
2024/01/08 08:04:52;;;;;;;;;22.00;19.60;;;;;1.48;100.00;99491.81;6273048;27;96376;-89
2024/01/08 08:07:55;;;;;;;;;26.75;24.75;;;;;2.05;100.00;99524.31;6271309;27;97030;-88
2024/01/08 08:10:59;;;;;;;;;21.00;18.60;;;;;1.83;100.00;99475.06;6247609;27;97156;-89
2024/01/08 08:14:03;;;;;;;;;24.00;22.50;;;;;1.09;100.00;99400.06;6250022;27;96612;-88
2024/01/08 08:17:07;;;;;;;;;23.20;22.20;;;;;1.54;100.00;99524.94;6261117;27;96325;-87
2024/01/08 08:20:12;;;;;;;;;22.75;20.75;;;;;1.49;100.00;99553.78;6272454;27;96370;-87
2024/01/08 08:23:16;;;;;;;;;22.60;22.00;;;;;1.09;100.00;99570.84;6246994;27;96832;-87
2024/01/08 08:26:19;;;;;;;;;23.80;22.00;;;;;1.02;100.00;99574.25;6254736;27;96323;-87
2024/01/08 08:29:23;;;;;;;;;25.50;22.75;;;;;0.90;100.00;99591.31;6247461;27;96287;-87
2024/01/08 08:32:31;;;;;;;;;27.80;24.20;;;;;0.48;100.00;99565.13;6252063;27;96307;-88
2024/01/08 08:35:36;;;;;;;;;26.25;22.25;;;;;0.59;100.00;99580.88;6259053;27;96329;-88
2024/01/08 08:38:39;;;;;;;;;25.20;23.00;;;;;0.61;100.00;99610.78;6259880;27;96503;-89
2024/01/08 08:41:45;;;;;;;;;26.40;23.00;;;;;0.78;100.00;99611.88;6262131;27;96208;-86
2024/01/08 08:44:48;;;;;;;;;25.00;23.40;;;;;0.78;100.00;99609.22;6262341;27;96243;-87
2024/01/08 08:47:53;;;;;;;;;26.00;22.00;;;;;0.70;100.00;99575.44;6279805;27;96614;-87
2024/01/08 08:50:56;;;;;;;;;24.40;20.00;;;;;0.62;100.00;99588.56;6262796;27;97089;-87
2024/01/08 08:54:03;;;;;;;;;21.60;20.20;;;;;0.92;100.00;99576.09;6262752;27;96811;-86
2024/01/08 08:57:07;;;;;;;;;23.75;22.75;;;;;1.51;100.00;99634.19;6259420;27;98372;-87
2024/01/08 09:00:11;;;;;;;;;25.00;22.00;;;;;1.80;100.00;99624.25;6236642;27;96762;-87
2024/01/08 09:03:19;;;;;;;;;26.00;24.00;;;;;1.74;100.00;99592.94;6250862;27;96305;-87
2024/01/08 09:06:24;;;;;;;;;26.20;22.20;;;;;2.23;100.00;99659.97;6246636;28;99606;-87
2024/01/08 09:09:27;;;;;;;;;23.00;22.80;;;;;1.92;98.71;99625.72;6233338;27;96294;-87
2024/01/08 09:12:30;;;;;;;;;23.20;22.20;;;;;1.73;100.00;99578.81;6249583;27;97719;-87
2024/01/08 09:15:34;;;;;;;;;24.00;21.50;;;;;1.73;100.00;99601.91;6226250;28;97501;-87
2024/01/08 09:18:39;;;;;;;;;22.00;20.60;;;;;1.96;100.00;99687.41;6243724;28;96331;-86
2024/01/08 09:21:45;;;;;;;;;29.00;24.00;;;;;1.15;100.00;99533.09;6227250;28;98343;-87
2024/01/08 09:24:48;;;;;;;;;27.00;23.50;;;;;1.85;100.00;99661.03;6247634;27;97376;-87
2024/01/08 09:27:51;;;;;;;;;24.80;22.80;;;;;1.79;100.00;99645.66;6249565;27;99862;-87
2024/01/08 09:30:55;;;;;;;;;26.50;26.00;;;;;0.69;100.00;99456.97;6250321;27;96731;-87
2024/01/08 09:33:59;;;;;;;;;23.00;21.50;;;;;1.25;100.00;99546.34;6249438;27;98008;-87
2024/01/08 09:37:03;;;;;;;;;24.40;22.00;;;;;1.63;100.00;99607.28;6251590;27;97645;-87
2024/01/08 09:40:08;;;;;;;;;24.60;23.40;;;;;0.83;100.00;99477.75;6252337;27;97236;-87
2024/01/08 09:43:14;;;;;;;;;25.25;22.75;;;;;1.27;100.00;99608.13;6253547;27;97001;-87
2024/01/08 09:46:25;;;;;;;;;25.00;22.00;;;;;1.38;100.00;99617.72;6287281;27;96832;-87
2024/01/08 09:49:32;;;;;;;;;27.00;24.20;;;;;1.80;100.00;99648.19;6253872;27;96907;-87
2024/01/08 09:52:39;;;;;;;;;27.60;26.40;;;;;1.72;100.00;99611.69;6251475;27;97619;-87
2024/01/08 09:55:45;;;;;;;;;25.50;24.00;;;;;1.43;100.00;99539.25;6268513;27;98105;-87
2024/01/08 09:58:48;;;;;;;;;24.25;22.75;;;;;2.20;99.24;99647.78;6269618;27;96925;-87
2024/01/08 10:01:54;;;;;;;;;26.50;25.00;;;;;2.60;100.00;99634.06;6252504;27;100012;-87
2024/01/08 10:04:58;;;;;;;;;26.25;24.00;;;;;2.79;96.21;99607.25;6251561;27;96296;-87
2024/01/08 10:08:02;;;;;;;;;24.60;23.20;;;;;2.39;95.90;99484.53;6251132;27;99184;-87
2024/01/08 10:11:06;;;;;;;;;25.60;24.00;;;;;3.83;94.25;99602.69;6249541;27;96998;-87
2024/01/08 10:14:11;;;;;;;;;26.25;24.00;;;;;4.58;87.44;99614.22;6256681;27;99423;-86
2024/01/08 10:17:15;;;;;;;;;24.00;22.00;;;;;3.24;86.30;99439.22;6260265;27;97029;-86
2024/01/08 10:20:20;;;;;;;;;24.75;23.75;;;;;3.88;87.91;99584.38;6260499;27;96105;-86
2024/01/08 10:23:25;;;;;;;;;26.25;24.25;;;;;4.16;88.43;99633.81;6260682;27;96316;-86
2024/01/08 10:26:30;;;;;;;;;26.00;24.00;;;;;4.02;88.63;99620.25;6259912;27;96801;-86
2024/01/08 10:29:33;;;;;;;;;26.40;25.00;;;;;3.90;88.10;99667.75;6251992;27;96290;-86
2024/01/08 10:32:37;;;;;;;;;21.20;21.20;;;;;3.74;84.62;99633.00;6251802;27;97133;-87
2024/01/08 10:35:43;;;;;;;;;29.00;27.00;;;;;3.69;84.41;99637.97;6251720;27;96541;-86
2024/01/08 10:38:47;;;;;;;;;27.00;23.00;;;;;3.39;84.12;99663.31;6251487;27;99010;-86
2024/01/08 10:41:51;;;;;;;;;30.00;25.00;;;;;2.61;85.17;99623.28;6268681;27;97138;-86
2024/01/08 10:44:54;;;;;;;;;27.75;23.75;;;;;2.75;89.11;99623.72;6246438;27;97325;-86
2024/01/08 10:48:10;;;;;;;;;29.40;27.40;;;;;3.07;88.26;99661.28;6234432;28;96340;-87
2024/01/08 10:51:17;;;;;;;;;29.00;26.00;;;;;2.88;86.61;99629.50;6225085;28;96837;-86
2024/01/08 10:54:20;;;;;;;;;27.25;26.00;;;;;5.00;83.99;99656.81;6225463;27;98713;-87
2024/01/08 10:57:31;;;;;;;;;25.40;22.40;;;;;7.01;82.46;99622.16;6225808;27;96867;-87
2024/01/08 11:00:36;;;;;;;;;25.00;24.00;;;;;8.09;71.94;99662.75;6226035;27;96427;-86
2024/01/08 11:03:39;;;;;;;;;26.00;24.80;;;;;7.64;70.76;99505.44;6243659;27;96296;-86
2024/01/08 11:06:48;;;;;;;;;26.33;23.33;;;;;9.07;68.73;99663.06;6231052;27;96445;-86
2024/01/08 11:09:52;;;;;;;;;25.00;24.00;;;;;8.83;67.78;99641.94;6230770;27;97428;-85
2024/01/08 11:12:56;;;;;;;;;26.75;24.00;;;;;8.78;67.79;99663.19;6264040;27;96808;-86
2024/01/08 11:16:06;;;;;;;;;26.00;23.00;;;;;8.21;70.59;99584.19;6230247;27;96246;-86
2024/01/08 11:19:26;;;;;;;;;23.00;20.00;;;;;7.28;70.25;99532.22;6229846;27;98203;-85
2024/01/08 11:22:33;;;;;;;;;24.00;21.50;;;;;7.89;71.63;99538.16;6229007;28;96564;-91
2024/01/08 11:25:37;;;;;;;;;26.00;24.00;;;;;7.52;71.11;99512.31;6254125;28;96302;-87
2024/01/08 11:28:42;;;;;;;;;25.50;24.00;;;;;7.13;71.52;99529.53;6254466;27;99359;-86
2024/01/08 11:32:21;;;;;;;;;25.00;23.00;;;;;7.60;71.77;99681.28;6271394;28;96304;-86
2024/01/08 11:35:29;;;;;;;;;27.75;25.50;;;;;6.00;73.03;99501.88;6254030;28;96279;-86
2024/01/08 11:38:39;;;;;;;;;26.60;22.60;;;;;6.16;72.96;99567.03;6253801;28;96509;-86
2024/01/08 11:41:42;;;;;;;;;23.80;21.20;;;;;6.84;73.52;99647.44;6253850;28;99094;-86
2024/01/08 11:44:46;;;;;;;;;27.40;25.40;;;;;9.11;72.21;99688.53;6253445;28;98224;-86
2024/01/08 11:47:49;;;;;;;;;26.33;23.00;;;;;10.63;63.57;99693.91;6254569;28;98741;-86
2024/01/08 11:50:53;;;;;;;;;26.80;23.80;;;;;12.28;58.54;99692.06;6253801;28;96345;-86
2024/01/08 11:54:03;;;;;;;;;25.00;22.00;;;;;12.91;55.60;99689.50;6271754;27;96429;-86
2024/01/08 11:57:07;;;;;;;;;22.50;20.00;;;;;12.29;58.49;99692.91;6253907;27;96327;-87
2024/01/08 12:00:12;;;;;;;;;25.40;23.00;;;;;10.96;57.85;99661.63;6270261;27;96309;-87
2024/01/08 12:03:16;;;;;;;;;25.00;23.25;;;;;9.35;61.27;99574.28;6245318;28;99865;-87
2024/01/08 12:06:20;;;;;;;;;24.40;22.00;;;;;9.69;61.13;99487.28;6259138;28;96785;-86
2024/01/08 12:09:31;;;;;;;;;25.20;22.40;;;;;12.17;62.50;99716.25;6269272;27;96333;-87
2024/01/08 12:12:35;;;;;;;;;26.20;22.00;;;;;12.62;56.40;99690.88;6254420;27;96972;-88
2024/01/08 12:15:38;;;;;;;;;26.00;24.00;;;;;13.27;51.21;99724.91;6243301;27;97032;-87
2024/01/08 12:18:43;;;;;;;;;28.00;27.00;;;;;12.50;52.36;99712.41;6249936;27;96341;-87
2024/01/08 12:21:47;;;;;;;;;24.80;20.60;;;;;12.35;56.14;99702.88;6270627;27;97614;-87
2024/01/08 12:24:55;;;;;;;;;20.00;19.00;;;;;11.77;53.96;99702.78;6266638;27;96351;-87
2024/01/08 12:28:00;;;;;;;;;22.80;21.20;;;;;11.43;57.86;99735.38;6262434;27;96489;-87
2024/01/08 12:31:04;;;;;;;;;22.50;18.50;;;;;10.81;57.42;99728.41;6264399;27;96578;-87
2024/01/08 12:34:08;;;;;;;;;23.00;20.00;;;;;10.82;59.72;99692.28;6269573;27;96433;-86
2024/01/08 12:37:13;;;;;;;;;26.60;24.00;;;;;12.21;58.87;99739.94;6245601;27;96987;-88
2024/01/08 12:40:18;;;;;;;;;22.80;21.40;;;;;11.77;56.54;99578.53;6267608;27;96554;-87
2024/01/08 12:43:22;;;;;;;;;23.60;22.20;;;;;13.19;53.79;99746.84;6250154;27;97294;-87
2024/01/08 12:46:25;;;;;;;;;30.00;29.00;;;;;12.65;56.14;99763.53;6247943;28;96462;-88
2024/01/08 12:49:29;;;;;;;;;29.00;26.50;;;;;11.82;56.64;99761.59;6250744;28;96502;-87
2024/01/08 12:52:32;;;;;;;;;34.00;30.75;;;;;10.21;61.03;99739.97;6240069;28;99464;-86
2024/01/08 12:55:38;;;;;;;;;34.00;30.00;;;;;9.13;71.75;99762.66;6247243;27;96520;-88
2024/01/08 12:58:42;;;;;;;;;31.40;28.00;;;;;8.05;74.33;99799.28;6243141;28;98074;-85
2024/01/08 13:01:45;;;;;;;;;30.60;28.60;;;;;5.66;74.43;99573.63;6240175;28;96940;-85
2024/01/08 13:04:49;;;;;;;;;34.80;30.00;;;;;5.77;77.62;99740.94;6269378;27;98882;-85
2024/01/08 13:07:52;;;;;;;;;32.67;29.33;;;;;5.41;87.77;99741.34;6246656;28;96278;-85
2024/01/08 13:10:58;;;;;;;;;30.20;26.80;;;;;3.71;83.90;99602.19;6252635;27;96294;-85
2024/01/08 13:14:03;;;;;;;;;28.60;26.60;;;;;3.56;88.54;99626.94;6250364;27;96989;-86
2024/01/08 13:17:07;;;;;;;;;33.00;30.00;;;;;3.12;92.28;99658.97;6247814;27;96798;-85
2024/01/08 13:20:14;;;;;;;;;30.40;28.00;;;;;3.21;95.19;99732.66;6259532;28;96685;-88
2024/01/08 13:23:28;;;;;;;;;28.00;26.00;;;;;3.28;100.00;99802.13;6242219;27;96294;-85
2024/01/08 13:26:33;;;;;;;;;30.33;27.00;;;;;2.11;100.00;99659.34;6233063;28;97801;-85
2024/01/08 13:29:38;;;;;;;;;34.00;30.00;;;;;2.71;100.00;99814.06;6241143;27;95987;-86
2024/01/08 13:32:42;;;;;;;;;29.20;27.60;;;;;1.18;100.00;99601.84;6230426;27;96976;-86
2024/01/08 13:35:45;;;;;;;;;32.60;28.60;;;;;1.53;100.00;99762.44;6266473;27;96283;-86
2024/01/08 13:38:48;;;;;;;;;33.00;27.60;;;;;1.98;100.00;99819.28;6251779;27;97019;-85
2024/01/08 13:41:53;;;;;;;;;32.60;28.60;;;;;1.50;100.00;99771.53;6244037;28;99294;-85
2024/01/08 13:44:56;;;;;;;;;34.00;30.00;;;;;1.62;100.00;99815.56;6225798;28;96183;-87
2024/01/08 13:48:00;;;;;;;;;29.25;28.00;;;;;1.70;100.00;99836.97;6241449;27;96283;-86
2024/01/08 13:51:04;;;;;;;;;31.00;30.00;;;;;1.11;100.00;99757.44;6230397;28;97294;-87
2024/01/08 13:54:08;;;;;;;;;43.40;34.40;;;;;1.09;100.00;99770.03;6230360;28;97026;-86
2024/01/08 13:57:13;;;;;;;;;32.75;30.00;;;;;1.57;100.00;99859.47;6231397;28;98893;-86
2024/01/08 14:00:17;;;;;;;;;36.20;31.40;;;;;0.46;100.00;99694.41;6231607;28;96651;-86
2024/01/08 14:03:20;;;;;;;;;34.00;30.00;;;;;1.59;100.00;99861.03;6231802;28;99654;-87